Terminal Aerodrome Forecast
Issued by NWS

Home | Current Version | Previous Version | Graphics & Text | Print | Product List | Glossary On
Versions: 1 2 3 4 5 6 7 8 9 10 11 12 13 14
000
FTUS43 KBIS 241300 AAA
TAFJMS
TAF AMD
KJMS 241312Z 2413/2512 33021G28KT P6SM -SN OVC015
     FM241400 33020G26KT P6SM SCT012 SCT020
     FM250000 31010KT P6SM SCT080
     FM250400 29008KT P6SM BKN035 OVC080
     FM250700 28007KT P6SM -SN BKN015 OVC025=

USA.gov is the U.S. government's official web portal to all federal, state and local government web resources and services.